sensor_id;sensor_type;location;lat;lon;timestamp;pressure;altitude;pressure_sealevel;temperature;humidity
9676;BME280;4876;42.656;23.292;2023-04-28T00:01:51;94565.31;;;6.56;54.94
9676;BME280;4876;42.656;23.292;2023-04-28T00:04:18;94568.19;;;6.30;55.79
9676;BME280;4876;42.656;23.292;2023-04-28T00:06:44;94565.97;;;6.42;55.83
9676;BME280;4876;42.656;23.292;2023-04-28T00:09:12;94570.88;;;6.49;55.78
9676;BME280;4876;42.656;23.292;2023-04-28T00:11:40;94569.53;;;6.52;55.27
9676;BME280;4876;42.656;23.292;2023-04-28T00:14:07;94567.94;;;6.56;55.08
9676;BME280;4876;42.656;23.292;2023-04-28T00:16:33;94572.72;;;6.48;55.20
9676;BME280;4876;42.656;23.292;2023-04-28T00:19:00;94563.00;;;6.25;55.74
9676;BME280;4876;42.656;23.292;2023-04-28T00:21:27;94568.09;;;6.40;55.38
9676;BME280;4876;42.656;23.292;2023-04-28T00:23:54;94567.63;;;6.33;55.72
9676;BME280;4876;42.656;23.292;2023-04-28T00:26:22;94568.59;;;6.13;56.14
9676;BME280;4876;42.656;23.292;2023-04-28T00:28:49;94547.88;;;5.98;56.42
9676;BME280;4876;42.656;23.292;2023-04-28T00:31:16;94569.00;;;6.26;55.92
9676;BME280;4876;42.656;23.292;2023-04-28T00:33:43;94567.28;;;6.16;56.04
9676;BME280;4876;42.656;23.292;2023-04-28T00:36:10;94566.47;;;5.86;56.66
9676;BME280;4876;42.656;23.292;2023-04-28T00:38:37;94575.25;;;6.01;56.64
9676;BME280;4876;42.656;23.292;2023-04-28T00:41:04;94579.75;;;6.24;56.42
9676;BME280;4876;42.656;23.292;2023-04-28T00:43:43;94573.34;;;6.11;56.47
9676;BME280;4876;42.656;23.292;2023-04-28T00:46:11;94580.53;;;6.25;56.19
9676;BME280;4876;42.656;23.292;2023-04-28T00:48:43;94586.00;;;5.94;56.49
9676;BME280;4876;42.656;23.292;2023-04-28T00:51:10;94579.25;;;6.22;56.19
9676;BME280;4876;42.656;23.292;2023-04-28T00:53:37;94580.25;;;5.97;56.04
9676;BME280;4876;42.656;23.292;2023-04-28T00:56:04;94583.16;;;5.90;57.10
9676;BME280;4876;42.656;23.292;2023-04-28T00:58:33;94579.94;;;5.64;56.86
9676;BME280;4876;42.656;23.292;2023-04-28T01:01:02;94582.53;;;5.64;57.42
9676;BME280;4876;42.656;23.292;2023-04-28T01:03:29;94590.19;;;5.90;57.36
9676;BME280;4876;42.656;23.292;2023-04-28T01:05:56;94591.69;;;6.01;56.28
9676;BME280;4876;42.656;23.292;2023-04-28T01:08:27;94590.19;;;5.90;56.46
9676;BME280;4876;42.656;23.292;2023-04-28T01:10:54;94589.88;;;5.62;56.99
9676;BME280;4876;42.656;23.292;2023-04-28T01:13:20;94592.88;;;5.80;57.15
9676;BME280;4876;42.656;23.292;2023-04-28T01:15:49;94596.81;;;5.77;56.07
9676;BME280;4876;42.656;23.292;2023-04-28T01:18:19;94596.75;;;5.87;56.68
9676;BME280;4876;42.656;23.292;2023-04-28T01:20:45;94600.41;;;5.86;56.19
9676;BME280;4876;42.656;23.292;2023-04-28T01:23:12;94589.50;;;5.79;56.56
9676;BME280;4876;42.656;23.292;2023-04-28T01:25:41;94595.50;;;5.80;56.05
9676;BME280;4876;42.656;23.292;2023-04-28T01:28:09;94591.78;;;5.91;55.68
9676;BME280;4876;42.656;23.292;2023-04-28T01:30:36;94598.38;;;5.78;55.72
9676;BME280;4876;42.656;23.292;2023-04-28T01:33:03;94595.88;;;5.63;56.13
9676;BME280;4876;42.656;23.292;2023-04-28T01:35:33;94596.34;;;5.70;56.02
9676;BME280;4876;42.656;23.292;2023-04-28T01:38:00;94595.97;;;5.87;56.22
9676;BME280;4876;42.656;23.292;2023-04-28T01:40:27;94590.16;;;5.61;55.74
9676;BME280;4876;42.656;23.292;2023-04-28T01:42:55;94595.97;;;5.53;56.61
9676;BME280;4876;42.656;23.292;2023-04-28T01:45:22;94596.91;;;5.67;56.55
9676;BME280;4876;42.656;23.292;2023-04-28T01:47:49;94593.22;;;5.68;55.83
9676;BME280;4876;42.656;23.292;2023-04-28T01:50:16;94600.38;;;5.52;56.02
9676;BME280;4876;42.656;23.292;2023-04-28T01:52:43;94591.25;;;5.50;56.70
9676;BME280;4876;42.656;23.292;2023-04-28T01:55:09;94598.50;;;5.58;56.02
9676;BME280;4876;42.656;23.292;2023-04-28T01:57:36;94595.41;;;5.56;56.02
9676;BME280;4876;42.656;23.292;2023-04-28T02:00:06;94595.44;;;5.51;56.12
9676;BME280;4876;42.656;23.292;2023-04-28T02:02:33;94596.47;;;5.50;56.97
9676;BME280;4876;42.656;23.292;2023-04-28T02:04:59;94601.66;;;5.60;56.55
9676;BME280;4876;42.656;23.292;2023-04-28T02:07:26;94589.63;;;5.59;56.64
9676;BME280;4876;42.656;23.292;2023-04-28T02:09:53;94594.31;;;5.62;57.00
9676;BME280;4876;42.656;23.292;2023-04-28T02:12:20;94600.28;;;5.67;56.92
9676;BME280;4876;42.656;23.292;2023-04-28T02:14:46;94600.94;;;5.83;56.48
9676;BME280;4876;42.656;23.292;2023-04-28T02:17:15;94602.56;;;5.74;56.52
9676;BME280;4876;42.656;23.292;2023-04-28T02:19:41;94603.63;;;5.73;56.70
9676;BME280;4876;42.656;23.292;2023-04-28T02:22:08;94601.09;;;5.63;56.75
9676;BME280;4876;42.656;23.292;2023-04-28T02:24:35;94613.50;;;5.42;57.38
9676;BME280;4876;42.656;23.292;2023-04-28T02:27:03;94616.31;;;5.46;57.32
9676;BME280;4876;42.656;23.292;2023-04-28T02:29:30;94613.06;;;5.64;57.10
9676;BME280;4876;42.656;23.292;2023-04-28T02:31:56;94613.34;;;5.62;57.40
9676;BME280;4876;42.656;23.292;2023-04-28T02:34:24;94612.06;;;5.60;56.90
9676;BME280;4876;42.656;23.292;2023-04-28T02:36:51;94618.81;;;5.66;57.24
9676;BME280;4876;42.656;23.292;2023-04-28T02:39:18;94624.06;;;5.61;57.49
9676;BME280;4876;42.656;23.292;2023-04-28T02:41:49;94618.25;;;5.69;56.86
9676;BME280;4876;42.656;23.292;2023-04-28T02:44:16;94624.66;;;5.53;57.65
9676;BME280;4876;42.656;23.292;2023-04-28T02:46:43;94629.56;;;5.59;57.01
9676;BME280;4876;42.656;23.292;2023-04-28T02:49:10;94632.97;;;5.55;57.41
9676;BME280;4876;42.656;23.292;2023-04-28T02:51:38;94632.41;;;5.63;57.23
9676;BME280;4876;42.656;23.292;2023-04-28T02:54:05;94628.56;;;5.50;57.53
9676;BME280;4876;42.656;23.292;2023-04-28T02:56:32;94628.41;;;5.31;57.23
9676;BME280;4876;42.656;23.292;2023-04-28T02:58:59;94632.03;;;5.40;57.81
9676;BME280;4876;42.656;23.292;2023-04-28T03:01:26;94632.03;;;5.35;57.88
9676;BME280;4876;42.656;23.292;2023-04-28T03:03:53;94639.84;;;5.40;57.77
9676;BME280;4876;42.656;23.292;2023-04-28T03:06:19;94642.69;;;5.39;57.20
9676;BME280;4876;42.656;23.292;2023-04-28T03:08:47;94645.06;;;5.40;57.21
9676;BME280;4876;42.656;23.292;2023-04-28T03:11:14;94639.56;;;5.42;57.62
9676;BME280;4876;42.656;23.292;2023-04-28T03:13:41;94635.34;;;5.46;57.23
9676;BME280;4876;42.656;23.292;2023-04-28T03:16:08;94647.41;;;5.37;56.67
9676;BME280;4876;42.656;23.292;2023-04-28T03:18:35;94647.25;;;5.18;57.20
9676;BME280;4876;42.656;23.292;2023-04-28T03:21:01;94641.56;;;5.01;57.44
9676;BME280;4876;42.656;23.292;2023-04-28T03:23:28;94649.81;;;5.23;57.21
9676;BME280;4876;42.656;23.292;2023-04-28T03:25:56;94651.97;;;5.11;57.74
9676;BME280;4876;42.656;23.292;2023-04-28T03:28:23;94656.06;;;5.27;57.30
9676;BME280;4876;42.656;23.292;2023-04-28T03:30:50;94653.13;;;5.39;56.96
9676;BME280;4876;42.656;23.292;2023-04-28T03:33:17;94664.63;;;5.33;56.58
9676;BME280;4876;42.656;23.292;2023-04-28T03:35:44;94643.09;;;5.12;56.74
9676;BME280;4876;42.656;23.292;2023-04-28T03:38:11;94671.53;;;5.58;56.61
9676;BME280;4876;42.656;23.292;2023-04-28T03:40:37;94666.63;;;6.01;55.30
9676;BME280;4876;42.656;23.292;2023-04-28T03:43:06;94676.69;;;6.17;54.45
9676;BME280;4876;42.656;23.292;2023-04-28T03:45:32;94685.88;;;6.73;53.46
9676;BME280;4876;42.656;23.292;2023-04-28T03:47:59;94676.25;;;7.16;52.44
9676;BME280;4876;42.656;23.292;2023-04-28T03:50:26;94679.63;;;7.41;51.11
9676;BME280;4876;42.656;23.292;2023-04-28T03:52:53;94682.72;;;7.67;50.25
9676;BME280;4876;42.656;23.292;2023-04-28T03:55:20;94687.53;;;7.97;49.85
9676;BME280;4876;42.656;23.292;2023-04-28T03:57:46;94691.31;;;8.24;48.28
9676;BME280;4876;42.656;23.292;2023-04-28T04:00:15;94696.53;;;8.75;47.53
9676;BME280;4876;42.656;23.292;2023-04-28T04:02:42;94699.13;;;9.22;46.12
9676;BME280;4876;42.656;23.292;2023-04-28T04:05:08;94703.16;;;9.83;44.83
9676;BME280;4876;42.656;23.292;2023-04-28T04:07:35;94707.75;;;10.13;43.96
9676;BME280;4876;42.656;23.292;2023-04-28T04:10:02;94710.53;;;10.31;44.27
9676;BME280;4876;42.656;23.292;2023-04-28T04:12:29;94713.31;;;9.98;43.76
9676;BME280;4876;42.656;23.292;2023-04-28T04:14:56;94716.69;;;10.12;44.19
9676;BME280;4876;42.656;23.292;2023-04-28T04:17:35;94711.59;;;10.74;42.69
9676;BME280;4876;42.656;23.292;2023-04-28T04:20:04;94712.53;;;10.78;42.18
9676;BME280;4876;42.656;23.292;2023-04-28T04:22:31;94713.00;;;11.12;41.84
9676;BME280;4876;42.656;23.292;2023-04-28T04:24:57;94718.88;;;11.00;41.69
9676;BME280;4876;42.656;23.292;2023-04-28T04:27:24;94710.44;;;11.20;42.19
9676;BME280;4876;42.656;23.292;2023-04-28T04:29:51;94721.16;;;11.32;41.94
9676;BME280;4876;42.656;23.292;2023-04-28T04:32:18;94733.91;;;11.48;41.26
9676;BME280;4876;42.656;23.292;2023-04-28T04:34:46;94735.47;;;11.49;41.26
9676;BME280;4876;42.656;23.292;2023-04-28T04:37:13;94685.53;;;11.26;41.09
9676;BME280;4876;42.656;23.292;2023-04-28T04:39:40;94701.94;;;11.80;40.63
9676;BME280;4876;42.656;23.292;2023-04-28T04:42:07;94724.78;;;11.94;41.18
9676;BME280;4876;42.656;23.292;2023-04-28T04:44:33;94738.69;;;11.85;40.50
9676;BME280;4876;42.656;23.292;2023-04-28T04:47:00;94737.41;;;11.74;40.70
9676;BME280;4876;42.656;23.292;2023-04-28T04:49:27;94731.31;;;12.05;40.32
9676;BME280;4876;42.656;23.292;2023-04-28T04:51:55;94741.56;;;12.24;40.00
9676;BME280;4876;42.656;23.292;2023-04-28T04:54:22;94742.59;;;11.88;40.61
9676;BME280;4876;42.656;23.292;2023-04-28T04:56:49;94743.13;;;11.68;41.32
9676;BME280;4876;42.656;23.292;2023-04-28T04:59:15;94754.56;;;12.20;40.49
9676;BME280;4876;42.656;23.292;2023-04-28T05:01:42;94744.34;;;12.45;40.36
9676;BME280;4876;42.656;23.292;2023-04-28T05:04:09;94751.16;;;12.46;40.09
9676;BME280;4876;42.656;23.292;2023-04-28T05:06:36;94759.69;;;12.51;39.82
9676;BME280;4876;42.656;23.292;2023-04-28T05:09:04;94762.78;;;12.19;41.38
9676;BME280;4876;42.656;23.292;2023-04-28T05:11:31;94756.28;;;12.25;40.54
9676;BME280;4876;42.656;23.292;2023-04-28T05:13:58;94757.50;;;11.93;41.11
9676;BME280;4876;42.656;23.292;2023-04-28T05:16:24;94751.38;;;11.75;41.62
9676;BME280;4876;42.656;23.292;2023-04-28T05:18:52;94753.97;;;11.26;41.92
9676;BME280;4876;42.656;23.292;2023-04-28T05:21:18;94768.66;;;11.50;42.43
9676;BME280;4876;42.656;23.292;2023-04-28T05:23:45;94762.63;;;11.18;43.71
9676;BME280;4876;42.656;23.292;2023-04-28T05:26:13;94763.69;;;11.57;42.82
9676;BME280;4876;42.656;23.292;2023-04-28T05:28:41;94765.69;;;11.91;42.01
9676;BME280;4876;42.656;23.292;2023-04-28T05:31:07;94767.25;;;12.01;41.55
9676;BME280;4876;42.656;23.292;2023-04-28T05:33:34;94767.44;;;11.56;42.56
9676;BME280;4876;42.656;23.292;2023-04-28T05:36:01;94759.31;;;11.92;41.96
9676;BME280;4876;42.656;23.292;2023-04-28T05:38:28;94766.94;;;11.94;41.39
9676;BME280;4876;42.656;23.292;2023-04-28T05:40:56;94757.28;;;11.80;42.57
9676;BME280;4876;42.656;23.292;2023-04-28T05:43:24;94758.44;;;11.57;41.59
9676;BME280;4876;42.656;23.292;2023-04-28T05:45:51;94759.84;;;11.63;41.65
9676;BME280;4876;42.656;23.292;2023-04-28T05:48:18;94754.84;;;12.10;41.16
9676;BME280;4876;42.656;23.292;2023-04-28T05:50:45;94759.84;;;12.20;40.96
9676;BME280;4876;42.656;23.292;2023-04-28T05:53:11;94757.81;;;12.00;40.96
9676;BME280;4876;42.656;23.292;2023-04-28T05:55:38;94762.31;;;12.08;40.96
9676;BME280;4876;42.656;23.292;2023-04-28T05:58:05;94769.94;;;12.27;40.86
9676;BME280;4876;42.656;23.292;2023-04-28T06:00:33;94761.56;;;12.51;40.77
9676;BME280;4876;42.656;23.292;2023-04-28T06:03:00;94762.94;;;12.05;41.00
9676;BME280;4876;42.656;23.292;2023-04-28T06:05:27;94762.13;;;11.87;41.37
9676;BME280;4876;42.656;23.292;2023-04-28T06:07:54;94771.59;;;11.97;44.13
9676;BME280;4876;42.656;23.292;2023-04-28T06:10:21;94771.34;;;11.76;44.65
9676;BME280;4876;42.656;23.292;2023-04-28T06:12:48;94762.19;;;12.39;43.94
9676;BME280;4876;42.656;23.292;2023-04-28T06:15:15;94762.19;;;12.39;42.67
9676;BME280;4876;42.656;23.292;2023-04-28T06:17:43;94759.22;;;12.40;40.97
9676;BME280;4876;42.656;23.292;2023-04-28T06:20:11;94757.34;;;12.06;41.07
9676;BME280;4876;42.656;23.292;2023-04-28T06:22:38;94756.22;;;11.81;42.13
9676;BME280;4876;42.656;23.292;2023-04-28T06:25:05;94764.47;;;12.06;41.65
9676;BME280;4876;42.656;23.292;2023-04-28T06:27:32;94762.88;;;11.48;42.27
9676;BME280;4876;42.656;23.292;2023-04-28T06:29:59;94759.91;;;10.78;43.73
9676;BME280;4876;42.656;23.292;2023-04-28T06:32:26;94775.00;;;10.28;43.96
9676;BME280;4876;42.656;23.292;2023-04-28T06:34:54;94776.31;;;9.48;45.97
9676;BME280;4876;42.656;23.292;2023-04-28T06:37:21;94763.81;;;9.12;47.03
9676;BME280;4876;42.656;23.292;2023-04-28T06:39:47;94756.91;;;9.99;45.59
9676;BME280;4876;42.656;23.292;2023-04-28T06:42:14;94757.53;;;10.18;44.56
9676;BME280;4876;42.656;23.292;2023-04-28T06:44:43;94761.78;;;10.42;44.47
9676;BME280;4876;42.656;23.292;2023-04-28T06:47:10;94743.94;;;10.75;43.82
9676;BME280;4876;42.656;23.292;2023-04-28T06:49:37;94740.03;;;10.95;44.26
9676;BME280;4876;42.656;23.292;2023-04-28T06:52:05;94757.63;;;10.63;43.97
9676;BME280;4876;42.656;23.292;2023-04-28T06:54:33;94755.09;;;11.03;43.68
9676;BME280;4876;42.656;23.292;2023-04-28T06:56:59;94761.44;;;10.79;44.07
9676;BME280;4876;42.656;23.292;2023-04-28T06:59:26;94751.38;;;11.04;44.24
9676;BME280;4876;42.656;23.292;2023-04-28T07:01:53;94754.97;;;11.39;42.91
9676;BME280;4876;42.656;23.292;2023-04-28T07:04:21;94754.84;;;11.93;42.36
9676;BME280;4876;42.656;23.292;2023-04-28T07:06:48;94755.63;;;12.02;41.19
9676;BME280;4876;42.656;23.292;2023-04-28T07:09:16;94758.53;;;11.43;42.62
9676;BME280;4876;42.656;23.292;2023-04-28T07:11:43;94704.25;;;11.25;42.22
9676;BME280;4876;42.656;23.292;2023-04-28T07:14:10;94753.00;;;11.93;41.75
9676;BME280;4876;42.656;23.292;2023-04-28T07:16:36;94744.13;;;11.89;41.37
9676;BME280;4876;42.656;23.292;2023-04-28T07:19:03;94754.09;;;12.09;41.18
9676;BME280;4876;42.656;23.292;2023-04-28T07:21:30;94743.25;;;10.92;43.83
9676;BME280;4876;42.656;23.292;2023-04-28T07:23:58;94748.41;;;11.28;43.15
9676;BME280;4876;42.656;23.292;2023-04-28T07:26:27;94746.25;;;11.78;41.42
9676;BME280;4876;42.656;23.292;2023-04-28T07:28:54;94745.09;;;12.54;39.78
9676;BME280;4876;42.656;23.292;2023-04-28T07:31:21;94736.44;;;12.19;40.49
9676;BME280;4876;42.656;23.292;2023-04-28T07:33:47;94746.81;;;11.49;43.04
9676;BME280;4876;42.656;23.292;2023-04-28T07:36:14;94757.03;;;11.59;42.07
9676;BME280;4876;42.656;23.292;2023-04-28T07:38:41;94749.13;;;11.51;41.90
9676;BME280;4876;42.656;23.292;2023-04-28T07:41:08;94750.72;;;11.69;41.03
9676;BME280;4876;42.656;23.292;2023-04-28T07:43:36;94750.59;;;11.35;41.02
9676;BME280;4876;42.656;23.292;2023-04-28T07:46:03;94740.97;;;11.70;41.71
9676;BME280;4876;42.656;23.292;2023-04-28T07:48:29;94742.97;;;11.64;42.18
9676;BME280;4876;42.656;23.292;2023-04-28T07:50:56;94750.88;;;10.71;43.52
9676;BME280;4876;42.656;23.292;2023-04-28T07:53:23;94741.34;;;11.06;42.63
9676;BME280;4876;42.656;23.292;2023-04-28T07:55:50;94742.75;;;11.43;41.82
9676;BME280;4876;42.656;23.292;2023-04-28T07:58:17;94747.25;;;11.51;41.53
9676;BME280;4876;42.656;23.292;2023-04-28T08:00:45;94735.63;;;11.52;40.58
9676;BME280;4876;42.656;23.292;2023-04-28T08:03:12;94737.69;;;11.73;40.83
9676;BME280;4876;42.656;23.292;2023-04-28T08:05:39;94742.00;;;12.00;41.10
9676;BME280;4876;42.656;23.292;2023-04-28T08:08:06;94741.53;;;12.15;40.77
9676;BME280;4876;42.656;23.292;2023-04-28T08:10:33;94731.31;;;11.56;41.69
9676;BME280;4876;42.656;23.292;2023-04-28T08:13:00;94741.69;;;11.53;41.77
9676;BME280;4876;42.656;23.292;2023-04-28T08:15:27;94749.59;;;11.93;41.53
9676;BME280;4876;42.656;23.292;2023-04-28T08:17:55;94741.22;;;11.59;42.18
9676;BME280;4876;42.656;23.292;2023-04-28T08:20:22;94750.53;;;11.57;41.75
9676;BME280;4876;42.656;23.292;2023-04-28T08:22:49;94744.50;;;11.65;42.17
9676;BME280;4876;42.656;23.292;2023-04-28T08:25:16;94747.41;;;11.95;41.82
9676;BME280;4876;42.656;23.292;2023-04-28T08:27:43;94743.25;;;11.23;41.06
9676;BME280;4876;42.656;23.292;2023-04-28T08:30:10;94735.69;;;11.21;42.07
9676;BME280;4876;42.656;23.292;2023-04-28T08:32:37;94740.47;;;11.59;40.63
9676;BME280;4876;42.656;23.292;2023-04-28T08:35:06;94739.47;;;11.86;39.80
9676;BME280;4876;42.656;23.292;2023-04-28T08:37:33;94729.34;;;11.79;40.12
9676;BME280;4876;42.656;23.292;2023-04-28T08:40:00;94722.97;;;11.72;40.57
9676;BME280;4876;42.656;23.292;2023-04-28T08:42:29;94731.09;;;11.84;40.65
9676;BME280;4876;42.656;23.292;2023-04-28T08:44:57;94740.88;;;11.83;39.96
9676;BME280;4876;42.656;23.292;2023-04-28T08:47:32;94734.09;;;11.51;40.71
9676;BME280;4876;42.656;23.292;2023-04-28T08:50:01;94734.25;;;11.55;41.55
9676;BME280;4876;42.656;23.292;2023-04-28T08:52:30;94733.22;;;11.25;40.86
9676;BME280;4876;42.656;23.292;2023-04-28T08:54:57;94710.38;;;11.12;41.79
9676;BME280;4876;42.656;23.292;2023-04-28T08:57:25;94731.97;;;11.71;40.55
9676;BME280;4876;42.656;23.292;2023-04-28T08:59:53;94728.72;;;11.25;42.11
9676;BME280;4876;42.656;23.292;2023-04-28T09:02:19;94725.94;;;11.70;40.73
9676;BME280;4876;42.656;23.292;2023-04-28T09:04:46;94717.16;;;11.83;41.18
9676;BME280;4876;42.656;23.292;2023-04-28T09:07:13;94719.50;;;11.94;41.20
9676;BME280;4876;42.656;23.292;2023-04-28T09:09:42;94711.41;;;11.81;41.13
9676;BME280;4876;42.656;23.292;2023-04-28T09:12:09;94718.88;;;11.48;40.69
9676;BME280;4876;42.656;23.292;2023-04-28T09:14:37;94680.78;;;11.46;40.96
9676;BME280;4876;42.656;23.292;2023-04-28T09:17:09;94702.75;;;11.41;41.80
9676;BME280;4876;42.656;23.292;2023-04-28T09:19:38;94704.41;;;11.77;41.00
9676;BME280;4876;42.656;23.292;2023-04-28T09:22:07;94699.78;;;11.82;41.06
9676;BME280;4876;42.656;23.292;2023-04-28T09:24:35;94695.16;;;11.97;41.39
9676;BME280;4876;42.656;23.292;2023-04-28T09:27:07;94695.41;;;11.78;41.32
9676;BME280;4876;42.656;23.292;2023-04-28T09:29:36;94701.97;;;11.98;42.45
9676;BME280;4876;42.656;23.292;2023-04-28T09:32:12;94696.56;;;11.94;40.90
9676;BME280;4876;42.656;23.292;2023-04-28T09:34:43;94693.09;;;11.76;40.28
9676;BME280;4876;42.656;23.292;2023-04-28T09:37:14;94690.91;;;11.78;40.70
9676;BME280;4876;42.656;23.292;2023-04-28T09:39:43;94681.91;;;11.62;41.11
9676;BME280;4876;42.656;23.292;2023-04-28T09:42:30;94670.47;;;11.75;40.72
9676;BME280;4876;42.656;23.292;2023-04-28T09:44:57;94685.38;;;11.89;40.17
9676;BME280;4876;42.656;23.292;2023-04-28T09:47:24;94669.88;;;11.96;39.69
9676;BME280;4876;42.656;23.292;2023-04-28T09:49:54;94676.88;;;12.00;39.86
9676;BME280;4876;42.656;23.292;2023-04-28T09:52:22;94674.69;;;12.11;40.53
9676;BME280;4876;42.656;23.292;2023-04-28T09:54:49;94676.69;;;12.40;40.49
9676;BME280;4876;42.656;23.292;2023-04-28T09:57:18;94678.06;;;12.63;39.00
9676;BME280;4876;42.656;23.292;2023-04-28T09:59:47;94664.94;;;12.20;39.66
9676;BME280;4876;42.656;23.292;2023-04-28T10:02:15;94664.63;;;12.30;39.30
9676;BME280;4876;42.656;23.292;2023-04-28T10:04:44;94630.16;;;12.35;38.61
9676;BME280;4876;42.656;23.292;2023-04-28T10:07:11;94652.16;;;12.57;39.05
9676;BME280;4876;42.656;23.292;2023-04-28T10:09:39;94649.91;;;12.85;38.80
9676;BME280;4876;42.656;23.292;2023-04-28T10:12:08;94652.66;;;12.97;38.80
9676;BME280;4876;42.656;23.292;2023-04-28T10:14:37;94643.50;;;12.94;39.01
9676;BME280;4876;42.656;23.292;2023-04-28T10:17:04;94648.09;;;13.24;37.83
9676;BME280;4876;42.656;23.292;2023-04-28T10:19:32;94653.84;;;13.17;38.62
9676;BME280;4876;42.656;23.292;2023-04-28T10:22:09;94638.75;;;13.26;37.28
9676;BME280;4876;42.656;23.292;2023-04-28T10:24:55;94653.41;;;13.44;38.10
9676;BME280;4876;42.656;23.292;2023-04-28T10:27:29;94641.59;;;13.04;37.25
9676;BME280;4876;42.656;23.292;2023-04-28T10:30:11;94643.44;;;12.74;37.00
9676;BME280;4876;42.656;23.292;2023-04-28T10:32:38;94643.69;;;12.89;37.82
9676;BME280;4876;42.656;23.292;2023-04-28T10:35:39;94635.66;;;13.15;37.29
9676;BME280;4876;42.656;23.292;2023-04-28T10:38:08;94645.94;;;13.08;39.22
9676;BME280;4876;42.656;23.292;2023-04-28T10:40:37;94640.47;;;13.22;38.20
9676;BME280;4876;42.656;23.292;2023-04-28T10:43:04;94630.09;;;13.08;36.66
9676;BME280;4876;42.656;23.292;2023-04-28T10:46:01;94628.94;;;13.27;36.98
9676;BME280;4876;42.656;23.292;2023-04-28T10:48:56;94621.13;;;13.39;35.85
9676;BME280;4876;42.656;23.292;2023-04-28T10:51:27;94607.03;;;13.56;35.67
9676;BME280;4876;42.656;23.292;2023-04-28T10:54:13;94618.22;;;13.53;36.15
9676;BME280;4876;42.656;23.292;2023-04-28T10:56:41;94610.94;;;13.50;36.11
9676;BME280;4876;42.656;23.292;2023-04-28T10:59:28;94605.34;;;13.51;35.22
9676;BME280;4876;42.656;23.292;2023-04-28T11:05:18;94615.66;;;13.65;34.94
9676;BME280;4876;42.656;23.292;2023-04-28T11:11:17;94604.44;;;13.47;37.33
9676;BME280;4876;42.656;23.292;2023-04-28T11:13:45;94589.69;;;13.67;37.47
9676;BME280;4876;42.656;23.292;2023-04-28T11:16:18;94606.00;;;13.48;36.76
9676;BME280;4876;42.656;23.292;2023-04-28T11:18:57;94585.50;;;13.45;37.56
9676;BME280;4876;42.656;23.292;2023-04-28T11:21:28;94576.69;;;13.62;38.51
9676;BME280;4876;42.656;23.292;2023-04-28T11:23:56;94590.16;;;13.69;36.83
9676;BME280;4876;42.656;23.292;2023-04-28T11:26:23;94581.63;;;13.63;35.55
9676;BME280;4876;42.656;23.292;2023-04-28T11:28:51;94595.63;;;13.64;34.14
9676;BME280;4876;42.656;23.292;2023-04-28T11:31:19;94588.78;;;13.63;36.13
9676;BME280;4876;42.656;23.292;2023-04-28T11:33:56;94576.75;;;13.74;36.31
9676;BME280;4876;42.656;23.292;2023-04-28T11:36:25;94560.47;;;13.84;35.92
9676;BME280;4876;42.656;23.292;2023-04-28T11:38:53;94577.72;;;14.02;35.54
9676;BME280;4876;42.656;23.292;2023-04-28T11:41:20;94576.97;;;14.02;36.25
9676;BME280;4876;42.656;23.292;2023-04-28T11:43:47;94563.63;;;13.78;35.49
9676;BME280;4876;42.656;23.292;2023-04-28T11:46:18;94570.22;;;13.71;35.51
9676;BME280;4876;42.656;23.292;2023-04-28T11:48:46;94568.91;;;13.98;33.98
9676;BME280;4876;42.656;23.292;2023-04-28T11:51:33;94559.75;;;14.29;33.32
9676;BME280;4876;42.656;23.292;2023-04-28T11:54:01;94557.56;;;14.31;32.56
9676;BME280;4876;42.656;23.292;2023-04-28T11:56:28;94566.56;;;13.97;32.68
9676;BME280;4876;42.656;23.292;2023-04-28T11:59:04;94567.03;;;14.32;33.99
9676;BME280;4876;42.656;23.292;2023-04-28T12:01:33;94565.66;;;14.14;33.64
9676;BME280;4876;42.656;23.292;2023-04-28T12:04:02;94495.63;;;13.66;34.38
9676;BME280;4876;42.656;23.292;2023-04-28T12:06:29;94557.78;;;14.38;33.36
9676;BME280;4876;42.656;23.292;2023-04-28T12:08:58;94553.31;;;14.51;32.62
9676;BME280;4876;42.656;23.292;2023-04-28T12:11:29;94551.66;;;14.59;33.22
9676;BME280;4876;42.656;23.292;2023-04-28T12:14:03;94537.47;;;14.75;33.14
9676;BME280;4876;42.656;23.292;2023-04-28T12:16:38;94548.59;;;14.81;33.49
9676;BME280;4876;42.656;23.292;2023-04-28T12:19:08;94545.28;;;14.72;33.09
9676;BME280;4876;42.656;23.292;2023-04-28T12:21:36;94542.22;;;14.82;33.81
9676;BME280;4876;42.656;23.292;2023-04-28T12:24:18;94542.31;;;14.98;34.05
9676;BME280;4876;42.656;23.292;2023-04-28T12:26:46;94546.59;;;14.78;34.80
9676;BME280;4876;42.656;23.292;2023-04-28T12:29:35;94540.44;;;15.11;33.53
9676;BME280;4876;42.656;23.292;2023-04-28T12:32:06;94538.22;;;14.88;33.67
9676;BME280;4876;42.656;23.292;2023-04-28T12:34:33;94526.09;;;15.12;32.54
9676;BME280;4876;42.656;23.292;2023-04-28T12:37:00;94528.75;;;14.87;32.73
9676;BME280;4876;42.656;23.292;2023-04-28T12:39:31;94525.34;;;14.87;33.26
9676;BME280;4876;42.656;23.292;2023-04-28T12:41:58;94539.91;;;14.93;33.68
9676;BME280;4876;42.656;23.292;2023-04-28T12:44:26;94523.34;;;14.71;34.94
9676;BME280;4876;42.656;23.292;2023-04-28T12:46:53;94519.91;;;14.83;34.76
9676;BME280;4876;42.656;23.292;2023-04-28T12:49:20;94515.91;;;15.26;33.82
9676;BME280;4876;42.656;23.292;2023-04-28T12:51:47;94517.47;;;15.02;35.06
9676;BME280;4876;42.656;23.292;2023-04-28T12:54:14;94506.00;;;15.11;34.03
9676;BME280;4876;42.656;23.292;2023-04-28T12:56:42;94509.41;;;15.23;34.75
9676;BME280;4876;42.656;23.292;2023-04-28T12:59:09;94506.66;;;15.07;33.56
9676;BME280;4876;42.656;23.292;2023-04-28T13:01:36;94510.28;;;15.15;33.25
9676;BME280;4876;42.656;23.292;2023-04-28T13:04:03;94500.94;;;14.81;34.50
9676;BME280;4876;42.656;23.292;2023-04-28T13:06:30;94497.19;;;14.82;35.24
9676;BME280;4876;42.656;23.292;2023-04-28T13:08:57;94498.06;;;14.98;34.11
9676;BME280;4876;42.656;23.292;2023-04-28T13:11:23;94500.91;;;15.18;34.09
9676;BME280;4876;42.656;23.292;2023-04-28T13:13:53;94470.88;;;15.14;34.85
9676;BME280;4876;42.656;23.292;2023-04-28T13:16:21;94488.59;;;15.38;34.39
9676;BME280;4876;42.656;23.292;2023-04-28T13:18:53;94487.13;;;15.52;34.17
9676;BME280;4876;42.656;23.292;2023-04-28T13:21:22;94493.53;;;15.51;34.97
9676;BME280;4876;42.656;23.292;2023-04-28T13:23:51;94488.03;;;15.44;34.57
9676;BME280;4876;42.656;23.292;2023-04-28T13:26:18;94503.03;;;15.52;33.37
9676;BME280;4876;42.656;23.292;2023-04-28T13:28:45;94490.94;;;15.27;34.75